Time;durP1;ratioP1;P1;durP2;ratioP2;P2;SDS_P1;SDS_P2;PMS_P1;PMS_P2;Temp;Humidity;BMP_temperature;BMP_pressure;BME280_temperature;BME280_humidity;BME280_pressure;Samples;Min_cycle;Max_cycle;Signal;HPM_P1;HPM_P2
2022/03/01 00:00:05;;;;;;;14.05;12.65;;;22.00;63.00;;;;;;6065073;28;89253;-64
2022/03/01 00:03:07;;;;;;;13.38;12.02;;;22.00;62.90;;;;;;6067561;28;87948;-64
2022/03/01 00:06:10;;;;;;;13.43;12.13;;;22.00;63.00;;;;;;6066217;28;89249;-64
2022/03/01 00:09:12;;;;;;;12.70;11.02;;;22.00;62.90;;;;;;6067557;28;89599;-64
2022/03/01 00:12:14;;;;;;;12.25;10.95;;;22.00;62.70;;;;;;6077403;28;89286;-64
2022/03/01 00:15:16;;;;;;;12.98;11.68;;;22.00;62.30;;;;;;6080451;28;89082;-64
2022/03/01 00:18:19;;;;;;;12.98;11.68;;;22.00;62.60;;;;;;6059990;28;89378;-64
2022/03/01 00:21:22;;;;;;;12.98;11.68;;;22.00;62.80;;;;;;6057710;28;88124;-64
2022/03/01 00:24:24;;;;;;;13.85;11.32;;;22.00;62.90;;;;;;6063313;28;89059;-64
2022/03/01 00:27:26;;;;;;;15.13;11.55;;;22.00;63.00;;;;;;6064025;28;88432;-64
2022/03/01 00:30:28;;;;;;;12.88;11.48;;;21.90;62.90;;;;;;6062102;28;89503;-64
2022/03/01 00:33:31;;;;;;;13.15;11.85;;;21.90;62.90;;;;;;6065286;28;89102;-64
2022/03/01 00:36:36;;;;;;;13.07;11.70;;;21.90;62.90;;;;;;6063867;28;90122;-64
2022/03/01 00:39:38;;;;;;;12.70;11.40;;;21.90;63.00;;;;;;6063977;28;89254;-64
2022/03/01 00:42:40;;;;;;;12.88;11.45;;;21.90;63.00;;;;;;6062522;28;89126;-64
2022/03/01 00:45:42;;;;;;;14.25;12.07;;;21.90;63.00;;;;;;6063983;28;88790;-64
2022/03/01 00:48:45;;;;;;;12.98;11.55;;;21.90;63.20;;;;;;6062734;28;88930;-64
2022/03/01 00:51:48;;;;;;;12.80;11.52;;;21.90;63.20;;;;;;6059210;28;89547;-64
2022/03/01 00:54:50;;;;;;;13.52;12.20;;;21.90;63.20;;;;;;6055616;28;89228;-64
2022/03/01 00:57:53;;;;;;;12.65;11.40;;;21.90;63.10;;;;;;6062821;28;88051;-64
2022/03/01 01:00:55;;;;;;;13.43;11.98;;;21.80;63.10;;;;;;6063899;28;89422;-64
2022/03/01 01:03:57;;;;;;;13.30;11.88;;;21.80;63.10;;;;;;6056870;28;88944;-64
2022/03/01 01:07:00;;;;;;;13.52;11.98;;;21.80;63.20;;;;;;6043665;28;90200;-64
2022/03/01 01:10:02;;;;;;;12.38;11.18;;;21.80;63.20;;;;;;6050940;28;89213;-64
2022/03/01 01:13:05;;;;;;;14.10;12.63;;;21.80;63.20;;;;;;6073077;28;88037;-64
2022/03/01 01:16:07;;;;;;;14.05;12.65;;;21.80;63.20;;;;;;6072308;28;89107;-64
2022/03/01 01:19:10;;;;;;;14.10;12.70;;;21.80;63.30;;;;;;6062764;28;89108;-64
2022/03/01 01:25:34;;;;;;;13.57;12.18;;;21.80;63.30;;;;;;6052433;28;89209;-64
2022/03/01 01:28:36;;;;;;;14.93;13.32;;;21.80;63.30;;;;;;6063761;28;88245;-64
2022/03/01 01:31:39;;;;;;;14.45;12.95;;;21.80;63.30;;;;;;6064233;28;89474;-64
2022/03/01 01:34:41;;;;;;;14.02;12.63;;;21.80;63.30;;;;;;6074291;28;89148;-64
2022/03/01 01:37:45;;;;;;;13.93;12.52;;;21.70;63.30;;;;;;6053943;28;89935;-64
2022/03/01 01:40:47;;;;;;;14.13;12.73;;;21.70;63.30;;;;;;6069191;28;89012;-64
2022/03/01 01:43:49;;;;;;;14.55;13.05;;;21.80;63.40;;;;;;6062621;28;89052;-64
2022/03/01 01:46:51;;;;;;;14.35;12.95;;;21.70;63.30;;;;;;6059491;28;89346;-64
2022/03/01 01:49:53;;;;;;;14.40;13.00;;;21.70;63.30;;;;;;6066073;28;89192;-64
2022/03/01 01:52:57;;;;;;;14.65;13.23;;;21.70;63.30;;;;;;6061402;28;89000;-64
2022/03/01 01:55:59;;;;;;;15.05;13.55;;;21.70;64.30;;;;;;6060160;28;89107;-64
2022/03/01 01:59:01;;;;;;;14.68;12.80;;;21.70;63.40;;;;;;6071001;28;88598;-64
2022/03/01 02:02:03;;;;;;;13.77;12.35;;;21.70;63.50;;;;;;6066512;28;89302;-64
2022/03/01 02:05:07;;;;;;;14.77;13.27;;;21.70;63.50;;;;;;6066803;28;89332;-63
2022/03/01 02:08:11;;;;;;;14.57;13.07;;;21.70;63.40;;;;;;6069978;28;90172;-64
2022/03/01 02:11:13;;;;;;;14.43;12.88;;;21.70;63.50;;;;;;6062035;28;89457;-64
2022/03/01 02:14:15;;;;;;;14.25;12.85;;;21.70;63.50;;;;;;6061484;28;89131;-63
2022/03/01 02:17:19;;;;;;;14.52;13.07;;;21.70;63.40;;;;;;6049838;28;88444;-64
2022/03/01 02:20:24;;;;;;;14.45;13.05;;;21.70;63.50;;;;;;6059941;28;88941;-64
2022/03/01 02:23:26;;;;;;;13.50;12.10;;;21.70;63.50;;;;;;6061108;28;88015;-64
2022/03/01 02:26:28;;;;;;;13.82;12.52;;;21.70;63.40;;;;;;6052420;28;89473;-64
2022/03/01 02:29:30;;;;;;;14.18;12.77;;;21.60;63.30;;;;;;6058474;28;87911;-64
2022/03/01 02:32:32;;;;;;;13.73;12.32;;;21.60;63.40;;;;;;6072602;28;89539;-64
2022/03/01 02:35:36;;;;;;;13.77;12.38;;;21.60;63.50;;;;;;6061456;28;89056;-64
2022/03/01 02:38:44;;;;;;;13.73;12.32;;;21.60;63.50;;;;;;6064337;28;89946;-64
2022/03/01 02:41:47;;;;;;;13.98;12.68;;;21.60;63.40;;;;;;6054593;28;89551;-64
2022/03/01 02:44:49;;;;;;;14.15;12.75;;;21.60;63.40;;;;;;6054366;28;89160;-64
2022/03/01 02:47:52;;;;;;;13.93;12.52;;;21.60;63.40;;;;;;6062111;28;89248;-64
2022/03/01 02:50:55;;;;;;;13.48;12.10;;;21.60;63.40;;;;;;6052301;28;89133;-64
2022/03/01 02:53:57;;;;;;;13.68;12.27;;;21.60;63.50;;;;;;6045531;28;89343;-64
2022/03/01 02:57:01;;;;;;;13.55;12.15;;;21.60;63.40;;;;;;6054006;28;89369;-64
2022/03/01 03:00:05;;;;;;;12.88;11.57;;;21.60;63.40;;;;;;6056450;28;88187;-64
2022/03/01 03:03:07;;;;;;;13.32;12.00;;;21.60;63.20;;;;;;6059851;28;88853;-64
2022/03/01 03:06:10;;;;;;;13.32;11.93;;;21.60;63.10;;;;;;6063100;28;88252;-64
2022/03/01 03:09:18;;;;;;;13.02;11.73;;;21.60;63.10;;;;;;6047132;28;90101;-64
2022/03/01 03:12:23;;;;;;;12.57;11.27;;;21.70;63.00;;;;;;6055616;28;89140;-64
2022/03/01 03:15:25;;;;;;;12.30;11.10;;;21.60;62.90;;;;;;6062696;28;88036;-64
2022/03/01 03:18:27;;;;;;;12.32;11.18;;;21.70;62.90;;;;;;6060295;28;89051;-64
2022/03/01 03:21:30;;;;;;;12.07;10.95;;;21.70;62.80;;;;;;6059916;28;89490;-64
2022/03/01 03:24:32;;;;;;;12.05;10.85;;;21.70;62.80;;;;;;6061817;28;89465;-64
2022/03/01 03:27:35;;;;;;;11.88;10.70;;;21.70;62.80;;;;;;6059749;28;89404;-63
2022/03/01 03:30:37;;;;;;;12.57;10.80;;;21.70;62.80;;;;;;6060417;28;88076;-64
2022/03/01 03:33:39;;;;;;;11.60;10.40;;;21.70;62.80;;;;;;6061138;28;89187;-64
2022/03/01 03:36:43;;;;;;;11.60;10.38;;;21.70;62.70;;;;;;6056911;28;87989;-64
2022/03/01 03:39:45;;;;;;;11.60;10.50;;;21.70;62.70;;;;;;6059188;28;90006;-64
2022/03/01 03:43:09;;;;;;;11.50;10.40;;;21.80;62.80;;;;;;6048001;28;89239;-64
2022/03/01 03:46:11;;;;;;;11.63;10.43;;;21.70;62.70;;;;;;6061107;28;89114;-64
2022/03/01 03:49:13;;;;;;;12.20;10.90;;;21.70;62.80;;;;;;6051664;28;89211;-64
2022/03/01 03:52:16;;;;;;;11.50;10.30;;;21.70;62.80;;;;;;6046769;28;89205;-65
2022/03/01 03:55:19;;;;;;;11.05;9.90;;;21.70;62.80;;;;;;6055530;28;89123;-64
2022/03/01 03:58:21;;;;;;;10.85;9.75;;;21.70;62.80;;;;;;6055520;28;89613;-64
2022/03/01 04:01:23;;;;;;;10.93;9.93;;;21.70;62.80;;;;;;6066079;28;88686;-64
2022/03/01 04:04:25;;;;;;;11.00;9.85;;;21.80;62.80;;;;;;6063827;28;89079;-64
2022/03/01 04:07:29;;;;;;;10.80;9.73;;;21.70;62.80;;;;;;6076427;28;86984;-63
2022/03/01 04:10:32;;;;;;;10.95;9.85;;;21.80;62.80;;;;;;6063699;28;90155;-64
2022/03/01 04:14:01;;;;;;;11.10;10.00;;;21.80;62.80;;;;;;6065471;28;89179;-64
2022/03/01 04:17:04;;;;;;;10.30;9.20;;;21.80;62.80;;;;;;6063618;28;88829;-63
2022/03/01 04:20:07;;;;;;;10.98;9.88;;;21.80;62.80;;;;;;6065631;28;88968;-64
2022/03/01 04:23:11;;;;;;;9.70;8.80;;;21.80;62.80;;;;;;6064698;28;89148;-64
2022/03/01 04:26:15;;;;;;;9.70;8.70;;;21.80;62.80;;;;;;6051143;28;89040;-64
2022/03/01 04:29:17;;;;;;;9.75;8.75;;;21.80;62.80;;;;;;6062948;28;89543;-64
2022/03/01 04:32:19;;;;;;;9.88;8.98;;;21.80;62.80;;;;;;6065165;28;87990;-64
2022/03/01 04:35:21;;;;;;;9.77;8.77;;;21.80;62.80;;;;;;6062834;28;89146;-64
2022/03/01 04:38:26;;;;;;;9.75;8.27;;;21.80;62.80;;;;;;6048830;28;87869;-64
2022/03/01 04:41:28;;;;;;;9.80;8.80;;;21.80;62.80;;;;;;6055954;28;89988;-64
2022/03/01 04:48:01;;;;;;;9.57;8.57;;;21.90;62.80;;;;;;6052929;28;87249;-64
2022/03/01 04:51:04;;;;;;;9.55;8.55;;;21.90;62.80;;;;;;6057098;28;89155;-64
2022/03/01 04:54:08;;;;;;;9.23;8.35;;;21.90;62.80;;;;;;6052751;28;87989;-64
2022/03/01 04:57:10;;;;;;;9.48;8.57;;;21.90;62.70;;;;;;6064084;28;89045;-64
2022/03/01 05:00:13;;;;;;;8.77;7.97;;;21.90;62.70;;;;;;6064606;28;89140;-64
2022/03/01 05:03:15;;;;;;;8.88;8.00;;;21.90;62.80;;;;;;6056859;28;88697;-64
2022/03/01 05:06:18;;;;;;;8.50;7.70;;;21.90;62.80;;;;;;6066438;28;89371;-64
2022/03/01 05:09:22;;;;;;;8.07;7.28;;;21.90;62.80;;;;;;6046785;28;88871;-64
2022/03/01 05:12:24;;;;;;;8.85;7.95;;;21.90;62.80;;;;;;6054682;28;90309;-64
2022/03/01 05:15:47;;;;;;;8.65;7.78;;;21.90;62.80;;;;;;6067709;28;89096;-64
2022/03/01 05:18:49;;;;;;;8.88;8.07;;;21.80;62.80;;;;;;6062489;28;89400;-64
2022/03/01 05:22:10;;;;;;;8.45;7.65;;;21.90;62.80;;;;;;6056585;28;88130;-64
2022/03/01 05:25:15;;;;;;;8.05;7.25;;;21.90;62.90;;;;;;6058344;28;89066;-64
2022/03/01 05:28:17;;;;;;;8.30;7.50;;;21.80;62.90;;;;;;6059995;28;89141;-64
2022/03/01 05:31:19;;;;;;;7.78;6.97;;;21.90;62.90;;;;;;6058460;28;88128;-64
2022/03/01 05:34:40;;;;;;;8.45;7.15;;;21.80;62.90;;;;;;6056739;28;88769;-64
2022/03/01 05:37:43;;;;;;;8.63;7.78;;;21.80;63.00;;;;;;6050709;28;89142;-64
2022/03/01 05:40:48;;;;;;;8.10;7.30;;;21.80;63.00;;;;;;6066674;28;87946;-64
2022/03/01 05:43:50;;;;;;;7.50;6.80;;;21.80;63.00;;;;;;6048816;28;90207;-64
2022/03/01 05:47:04;;;;;;;7.18;6.57;;;21.80;63.00;;;;;;6059674;28;89211;-64
2022/03/01 05:50:09;;;;;;;7.80;7.00;;;21.80;63.10;;;;;;6043801;28;87974;-64
2022/03/01 05:53:11;;;;;;;7.05;6.35;;;21.80;63.10;;;;;;6062744;28;89165;-64
2022/03/01 05:56:14;;;;;;;7.47;6.78;;;21.80;63.10;;;;;;6052778;28;88715;-64
2022/03/01 05:59:16;;;;;;;7.43;6.70;;;21.80;63.10;;;;;;6052212;28;89307;-64
2022/03/01 06:02:18;;;;;;;6.97;6.30;;;21.80;63.10;;;;;;6050368;28;89598;-64
2022/03/01 06:05:20;;;;;;;7.03;6.32;;;21.80;63.10;;;;;;6067452;28;88732;-64
2022/03/01 06:08:23;;;;;;;6.75;6.15;;;21.80;63.00;;;;;;6064420;28;89018;-64
2022/03/01 06:11:26;;;;;;;7.30;6.60;;;21.80;63.00;;;;;;6065635;28;89188;-64
2022/03/01 06:14:28;;;;;;;7.43;6.20;;;21.80;63.00;;;;;;6058478;28;88767;-64
2022/03/01 06:17:31;;;;;;;7.30;6.25;;;21.80;63.10;;;;;;6061361;28;89177;-64
2022/03/01 06:20:33;;;;;;;6.43;5.82;;;21.80;63.00;;;;;;6072160;28;88922;-64
2022/03/01 06:23:35;;;;;;;7.50;6.75;;;21.80;63.00;;;;;;6053298;28;89058;-64
2022/03/01 06:26:38;;;;;;;6.82;6.15;;;21.80;63.00;;;;;;6053457;28;89178;-64
2022/03/01 06:29:41;;;;;;;6.90;6.03;;;21.90;63.10;;;;;;6053725;28;89734;-64
2022/03/01 06:32:43;;;;;;;6.60;6.00;;;21.80;63.00;;;;;;6061300;28;87940;-64
2022/03/01 06:35:45;;;;;;;6.38;5.78;;;21.80;63.10;;;;;;6063441;28;88311;-64
2022/03/01 06:38:47;;;;;;;6.80;6.07;;;21.90;63.20;;;;;;6066735;28;89248;-64
2022/03/01 06:41:51;;;;;;;6.70;5.93;;;21.90;63.00;;;;;;6070283;28;89393;-64
2022/03/01 06:44:53;;;;;;;7.25;6.13;;;21.90;63.00;;;;;;6049410;28;90099;-64
2022/03/01 06:47:55;;;;;;;7.53;5.82;;;21.90;63.00;;;;;;6040250;28;88384;-64
2022/03/01 06:50:58;;;;;;;6.05;5.45;;;22.00;63.00;;;;;;6039516;28;89560;-64
2022/03/01 06:54:00;;;;;;;6.28;5.60;;;22.00;63.00;;;;;;6048391;28;88772;-64
2022/03/01 06:57:04;;;;;;;6.68;5.85;;;21.90;62.90;;;;;;6048505;28;89080;-64
2022/03/01 07:00:07;;;;;;;6.10;5.50;;;21.90;62.90;;;;;;6062722;28;88807;-64
2022/03/01 07:03:10;;;;;;;6.88;5.60;;;21.90;62.90;;;;;;6060175;28;87982;-64
2022/03/01 07:06:12;;;;;;;6.78;6.07;;;21.90;63.00;;;;;;6070370;28;88548;-64
2022/03/01 07:09:14;;;;;;;6.35;5.75;;;22.00;62.90;;;;;;6050161;28;89243;-64
2022/03/01 07:12:18;;;;;;;6.57;5.47;;;22.00;62.80;;;;;;6061676;28;89201;-64
2022/03/01 07:15:20;;;;;;;6.32;5.72;;;22.00;62.80;;;;;;6060632;28;90031;-64
2022/03/01 07:18:22;;;;;;;6.28;5.20;;;22.00;62.80;;;;;;6048951;28;87978;-63
2022/03/01 07:21:42;;;;;;;6.78;5.90;;;22.00;62.80;;;;;;6059991;28;89182;-63
2022/03/01 07:24:44;;;;;;;6.45;5.55;;;22.00;62.70;;;;;;6050264;28;88089;-64
2022/03/01 07:27:50;;;;;;;5.70;5.20;;;22.00;62.70;;;;;;6050075;28;89014;-64
2022/03/01 07:30:52;;;;;;;6.47;5.20;;;22.00;62.70;;;;;;6051919;28;89242;-64
2022/03/01 07:33:54;;;;;;;6.82;5.43;;;22.00;62.70;;;;;;6064693;28;89240;-63
2022/03/01 07:36:56;;;;;;;6.10;5.47;;;22.00;62.70;;;;;;6067016;28;88310;-64
2022/03/01 07:39:59;;;;;;;6.25;5.10;;;22.00;63.60;;;;;;6071815;28;88160;-64
2022/03/01 07:43:04;;;;;;;6.10;5.35;;;22.00;62.70;;;;;;6064866;28;89145;-64
2022/03/01 07:46:10;;;;;;;6.70;5.60;;;22.00;62.60;;;;;;6066004;28;90442;-64
2022/03/01 07:49:13;;;;;;;5.32;4.82;;;22.00;62.70;;;;;;6054317;28;88886;-64
2022/03/01 07:52:15;;;;;;;5.80;5.20;;;22.10;62.70;;;;;;6051322;28;89137;-64
2022/03/01 07:55:17;;;;;;;5.50;4.95;;;22.00;62.70;;;;;;6052932;28;88916;-64
2022/03/01 07:58:20;;;;;;;6.85;5.28;;;22.10;62.70;;;;;;6063926;28;89287;-64
2022/03/01 08:01:22;;;;;;;6.00;4.97;;;22.00;62.60;;;;;;6058275;28;89171;-64
2022/03/01 08:04:24;;;;;;;6.57;4.78;;;22.10;62.70;;;;;;6055319;28;88069;-64
2022/03/01 08:07:28;;;;;;;5.30;4.80;;;22.10;62.70;;;;;;6067797;28;88353;-64
2022/03/01 08:10:30;;;;;;;5.85;4.85;;;22.10;62.70;;;;;;6044354;28;89089;-63
2022/03/01 08:13:34;;;;;;;5.68;4.50;;;22.10;62.70;;;;;;6064096;28;89309;-64
2022/03/01 08:16:36;;;;;;;5.50;4.85;;;22.10;62.60;;;;;;6054663;28;90337;-63
2022/03/01 08:19:38;;;;;;;5.72;4.80;;;22.10;62.60;;;;;;6068743;28;89049;-64
2022/03/01 08:22:40;;;;;;;5.22;4.72;;;22.10;63.50;;;;;;6056711;28;89509;-64
2022/03/01 08:25:43;;;;;;;5.50;4.85;;;22.10;62.70;;;;;;6061034;28;87995;-64
2022/03/01 08:28:46;;;;;;;5.25;4.57;;;22.10;62.70;;;;;;6052488;28;89138;-63
2022/03/01 08:31:48;;;;;;;5.47;4.68;;;22.10;62.70;;;;;;6064811;28;88754;-64
2022/03/01 08:34:50;;;;;;;5.50;4.80;;;22.20;62.80;;;;;;6063052;28;89192;-64
2022/03/01 08:37:52;;;;;;;5.30;4.60;;;22.10;62.70;;;;;;6051726;28;88438;-64
2022/03/01 08:40:55;;;;;;;4.90;4.40;;;22.10;62.70;;;;;;6057199;28;89371;-64
2022/03/01 08:43:58;;;;;;;5.30;4.47;;;22.10;62.70;;;;;;6066539;28;89080;-63
2022/03/01 08:47:00;;;;;;;5.45;4.72;;;22.10;62.60;;;;;;6063905;28;90259;-64
2022/03/01 08:50:02;;;;;;;4.88;4.35;;;22.10;62.60;;;;;;6047277;28;89069;-64
2022/03/01 08:53:05;;;;;;;5.20;4.70;;;22.20;62.60;;;;;;6052662;28;89214;-64
2022/03/01 08:56:08;;;;;;;4.57;4.13;;;22.20;63.50;;;;;;6055379;28;89162;-63
2022/03/01 08:59:12;;;;;;;5.15;4.30;;;22.20;62.50;;;;;;6049986;28;89200;-64
2022/03/01 09:02:17;;;;;;;4.93;4.43;;;22.20;62.50;;;;;;6064436;28;91423;-64
2022/03/01 09:05:19;;;;;;;5.32;4.50;;;22.20;62.50;;;;;;6057736;28;89263;-64
2022/03/01 09:08:21;;;;;;;5.03;4.30;;;22.20;62.40;;;;;;6063835;28;88388;-64
2022/03/01 09:11:23;;;;;;;4.38;3.97;;;22.30;62.50;;;;;;6065272;28;89406;-64
2022/03/01 09:14:27;;;;;;;4.85;4.35;;;22.20;62.40;;;;;;6055115;28;87874;-64
2022/03/01 09:17:29;;;;;;;4.63;4.22;;;22.30;62.50;;;;;;6046490;28;90020;-64
2022/03/01 09:20:31;;;;;;;4.90;4.40;;;22.20;62.50;;;;;;6074285;28;89339;-64
2022/03/01 09:23:34;;;;;;;4.30;3.90;;;22.20;62.50;;;;;;6046709;28;89220;-64
2022/03/01 09:26:36;;;;;;;5.10;4.38;;;22.20;62.50;;;;;;6055483;28;89270;-64
2022/03/01 09:29:40;;;;;;;4.28;3.67;;;22.20;62.50;;;;;;6063339;28;89523;-64
2022/03/01 09:32:42;;;;;;;4.57;4.13;;;22.20;62.60;;;;;;6064305;28;89089;-64
2022/03/01 09:35:45;;;;;;;4.97;4.20;;;22.20;62.60;;;;;;6061600;28;89222;-64
2022/03/01 09:38:47;;;;;;;4.22;3.83;;;22.20;62.50;;;;;;6065815;28;87778;-64
2022/03/01 09:41:50;;;;;;;4.95;3.80;;;22.20;62.60;;;;;;6063251;28;89355;-63
2022/03/01 09:44:55;;;;;;;4.93;3.95;;;22.20;62.50;;;;;;6042405;28;89224;-63
2022/03/01 09:47:57;;;;;;;5.10;4.15;;;22.20;62.50;;;;;;6050468;28;90111;-64
2022/03/01 09:51:01;;;;;;;4.28;3.88;;;22.20;62.50;;;;;;6064734;28;89067;-63
2022/03/01 09:54:03;;;;;;;4.20;3.80;;;22.20;62.60;;;;;;6052265;28;89566;-64
2022/03/01 09:57:06;;;;;;;4.22;3.70;;;22.20;62.60;;;;;;6051311;28;89116;-64
2022/03/01 10:00:10;;;;;;;4.70;4.05;;;22.30;62.70;;;;;;6058256;28;89094;-64
2022/03/01 10:03:16;;;;;;;4.28;3.88;;;22.30;62.60;;;;;;6063147;28;89401;-64
2022/03/01 10:06:22;;;;;;;4.80;4.28;;;22.20;62.50;;;;;;6070059;28;89130;-64
2022/03/01 10:09:26;;;;;;;4.03;3.63;;;22.30;62.60;;;;;;6064288;28;88293;-64
2022/03/01 10:12:29;;;;;;;4.40;3.80;;;22.30;62.70;;;;;;6050210;28;89129;-63
2022/03/01 10:15:33;;;;;;;4.13;3.72;;;22.30;62.70;;;;;;6063584;28;89111;-64
2022/03/01 10:18:39;;;;;;;4.60;3.88;;;22.30;62.70;;;;;;6049418;28;90178;-64
2022/03/01 10:21:41;;;;;;;4.45;3.80;;;22.20;62.70;;;;;;6051416;28;89091;-64
2022/03/01 10:24:48;;;;;;;3.90;3.45;;;22.30;62.80;;;;;;6050800;28;87990;-64
2022/03/01 10:27:53;;;;;;;4.78;3.90;;;22.30;62.80;;;;;;6039584;28;89048;-63
2022/03/01 10:30:56;;;;;;;4.10;3.70;;;22.30;62.70;;;;;;6048905;28;89202;-64
2022/03/01 10:34:00;;;;;;;3.75;3.35;;;22.30;62.80;;;;;;6052969;28;87986;-64
2022/03/01 10:37:02;;;;;;;3.72;3.40;;;22.30;62.80;;;;;;6052608;28;89211;-63
2022/03/01 10:40:12;;;;;;;4.80;3.83;;;22.30;62.80;;;;;;6064024;28;88828;-63
2022/03/01 10:43:15;;;;;;;4.10;3.70;;;22.30;62.80;;;;;;6062264;28;89409;-64
2022/03/01 10:46:18;;;;;;;4.32;3.53;;;22.30;62.80;;;;;;6057904;28;89123;-64
2022/03/01 10:49:23;;;;;;;4.00;3.60;;;22.30;62.80;;;;;;6043479;28;90264;-63
2022/03/01 10:52:33;;;;;;;3.88;3.50;;;22.30;62.80;;;;;;6039187;28;89725;-64
2022/03/01 10:55:38;;;;;;;3.85;3.45;;;22.40;62.80;;;;;;6059509;28;89027;-64
2022/03/01 10:58:42;;;;;;;4.00;3.60;;;22.40;62.80;;;;;;6052275;28;89105;-64
2022/03/01 11:01:45;;;;;;;3.58;3.25;;;22.40;62.80;;;;;;6049431;28;89313;-64
2022/03/01 11:04:48;;;;;;;4.15;3.78;;;22.30;62.80;;;;;;6058915;28;89455;-64
2022/03/01 11:07:53;;;;;;;3.80;3.40;;;22.30;62.80;;;;;;6053146;28;89401;-64
2022/03/01 11:10:56;;;;;;;3.60;3.30;;;22.40;62.90;;;;;;6049586;28;87298;-64
2022/03/01 11:13:58;;;;;;;3.70;3.38;;;22.40;63.00;;;;;;6061105;28;89258;-64
2022/03/01 11:17:08;;;;;;;3.53;3.22;;;22.40;63.00;;;;;;6059448;28;89509;-64
2022/03/01 11:20:15;;;;;;;3.70;3.40;;;22.40;62.90;;;;;;6061710;28;89906;-64
2022/03/01 11:23:23;;;;;;;3.67;3.20;;;22.40;62.90;;;;;;6047936;28;89042;-64
2022/03/01 11:26:36;;;;;;;3.72;3.20;;;22.40;62.90;;;;;;6060622;28;88731;-64
2022/03/01 11:29:39;;;;;;;3.75;3.40;;;22.40;62.90;;;;;;6038161;28;89650;-64
2022/03/01 11:32:45;;;;;;;3.67;3.25;;;22.40;62.90;;;;;;6049478;28;89399;-64
2022/03/01 11:35:54;;;;;;;3.95;3.50;;;22.40;62.90;;;;;;6047760;28;89198;-64
2022/03/01 11:38:56;;;;;;;3.40;3.10;;;22.40;62.90;;;;;;6065115;28;89115;-64
2022/03/01 11:42:04;;;;;;;3.85;3.42;;;22.40;62.90;;;;;;6053974;28;87464;-64
2022/03/01 11:45:11;;;;;;;3.60;3.30;;;22.40;62.90;;;;;;6057798;28;89085;-64
2022/03/01 11:48:17;;;;;;;3.55;3.20;;;22.40;62.90;;;;;;6056987;28;87989;-64
2022/03/01 11:51:19;;;;;;;3.38;3.08;;;22.40;62.90;;;;;;6049945;28;90317;-64
2022/03/01 11:54:23;;;;;;;3.45;3.10;;;22.40;62.80;;;;;;6048253;28;89061;-64
2022/03/01 11:57:29;;;;;;;3.38;3.08;;;22.40;62.90;;;;;;6049541;28;89417;-64
2022/03/01 12:00:33;;;;;;;3.45;3.15;;;22.40;62.90;;;;;;6058971;28;88902;-64
2022/03/01 12:03:39;;;;;;;3.60;3.25;;;22.40;63.00;;;;;;6059877;28;89167;-64
2022/03/01 12:06:42;;;;;;;3.75;3.03;;;22.40;63.00;;;;;;6067175;28;89111;-64
2022/03/01 12:09:53;;;;;;;3.10;2.80;;;22.40;63.10;;;;;;6049633;28;88836;-64
2022/03/01 12:12:56;;;;;;;3.50;3.20;;;22.40;63.20;;;;;;6060528;28;88269;-64
2022/03/01 12:15:59;;;;;;;3.58;3.28;;;22.40;63.20;;;;;;6064382;28;89117;-64
2022/03/01 12:19:11;;;;;;;3.47;3.17;;;22.40;63.20;;;;;;6066462;28;89324;-64
2022/03/01 12:22:16;;;;;;;3.33;3.03;;;22.40;63.20;;;;;;6053202;28;90072;-64
2022/03/01 12:25:18;;;;;;;3.10;2.80;;;22.40;63.20;;;;;;6040943;28;89107;-64
2022/03/01 12:28:23;;;;;;;3.05;2.80;;;22.40;63.20;;;;;;6056495;28;89112;-64
2022/03/01 12:31:27;;;;;;;3.15;2.85;;;22.40;63.20;;;;;;6051464;28;87997;-64
2022/03/01 12:34:32;;;;;;;3.40;3.10;;;22.40;63.20;;;;;;6042450;28;89123;-64
2022/03/01 12:37:34;;;;;;;2.85;2.60;;;22.40;63.20;;;;;;6064745;28;88963;-64
2022/03/01 12:40:37;;;;;;;3.20;2.90;;;22.40;63.20;;;;;;6072524;28;89189;-64
2022/03/01 12:43:41;;;;;;;3.20;2.90;;;22.40;63.10;;;;;;6063329;28;87183;-64
2022/03/01 12:46:44;;;;;;;3.38;3.00;;;22.40;63.20;;;;;;6051721;28;89395;-64
2022/03/01 12:49:47;;;;;;;3.20;2.90;;;22.40;63.10;;;;;;6049842;28;88015;-64
2022/03/01 12:53:00;;;;;;;3.10;2.80;;;22.40;63.10;;;;;;6052651;28;90528;-64
2022/03/01 12:56:02;;;;;;;3.33;3.03;;;22.40;63.10;;;;;;6040382;28;89381;-64
2022/03/01 12:59:08;;;;;;;3.28;2.97;;;22.40;63.10;;;;;;6052415;28;91178;-64
2022/03/01 13:02:11;;;;;;;3.28;2.72;;;22.40;63.00;;;;;;6063040;28;88161;-64
2022/03/01 13:05:27;;;;;;;2.95;2.65;;;22.40;63.10;;;;;;6068251;28;89157;-64
2022/03/01 13:08:32;;;;;;;2.97;2.78;;;22.40;63.00;;;;;;6052735;28;89124;-64
2022/03/01 13:11:34;;;;;;;3.08;2.78;;;22.40;63.00;;;;;;6052151;28;89147;-63
2022/03/01 13:14:36;;;;;;;2.90;2.60;;;22.40;63.00;;;;;;6042409;28;88302;-64
2022/03/01 13:17:38;;;;;;;3.00;2.70;;;22.40;63.00;;;;;;6059827;28;89563;-64
2022/03/01 13:20:42;;;;;;;2.88;2.60;;;22.40;63.00;;;;;;6074744;28;89120;-64
2022/03/01 13:23:44;;;;;;;3.33;2.72;;;22.40;63.00;;;;;;6056622;28;90132;-64
2022/03/01 13:26:48;;;;;;;3.28;2.80;;;22.40;63.00;;;;;;6042921;28;89126;-64
2022/03/01 13:29:51;;;;;;;2.72;2.53;;;22.40;63.00;;;;;;6060599;28;89379;-64
2022/03/01 13:33:04;;;;;;;2.95;2.63;;;22.40;62.90;;;;;;6053117;28;89017;-64
2022/03/01 13:36:15;;;;;;;2.80;2.60;;;22.40;62.90;;;;;;6061151;28;89239;-64
2022/03/01 13:39:19;;;;;;;2.90;2.60;;;22.40;62.90;;;;;;6058854;28;88270;-64
2022/03/01 13:42:21;;;;;;;2.90;2.60;;;22.40;62.90;;;;;;6064875;28;89045;-64
2022/03/01 13:45:23;;;;;;;2.90;2.60;;;22.40;63.00;;;;;;6050673;28;87366;-64
2022/03/01 13:48:27;;;;;;;2.65;2.45;;;22.40;63.00;;;;;;6057918;28;89273;-65
2022/03/01 13:51:33;;;;;;;2.83;2.50;;;22.40;63.00;;;;;;6061425;28;88493;-65
2022/03/01 13:54:35;;;;;;;2.83;2.60;;;22.40;62.90;;;;;;6050529;28;90249;-65
2022/03/01 13:57:40;;;;;;;2.60;2.40;;;22.40;62.90;;;;;;6062273;28;88021;-65
2022/03/01 14:00:43;;;;;;;2.75;2.55;;;22.40;62.90;;;;;;6051276;28;89098;-64
2022/03/01 14:03:47;;;;;;;2.45;2.17;;;22.40;62.90;;;;;;6064662;28;89153;-64
2022/03/01 14:06:51;;;;;;;2.70;2.50;;;22.40;62.90;;;;;;6058966;28;88158;-65
2022/03/01 14:09:54;;;;;;;2.92;2.40;;;22.40;62.90;;;;;;6049711;28;89613;-65
2022/03/01 14:13:02;;;;;;;2.60;2.40;;;22.40;62.90;;;;;;6062747;28;89071;-65
2022/03/01 14:16:06;;;;;;;2.60;2.40;;;22.40;62.90;;;;;;6061743;28;88387;-64
2022/03/01 14:19:08;;;;;;;2.65;2.45;;;22.40;62.90;;;;;;6066077;28;89403;-65
2022/03/01 14:22:12;;;;;;;3.00;2.70;;;22.40;62.90;;;;;;6068844;28;88303;-64
2022/03/01 14:25:14;;;;;;;2.85;2.55;;;22.40;62.90;;;;;;6062072;28;89996;-65
2022/03/01 14:28:16;;;;;;;2.45;2.25;;;22.40;62.90;;;;;;6062736;28;89057;-65
2022/03/01 14:31:18;;;;;;;2.40;2.20;;;22.40;62.90;;;;;;6060946;28;89075;-65
2022/03/01 14:34:20;;;;;;;2.55;2.35;;;22.40;62.90;;;;;;6051680;28;89274;-65
2022/03/01 14:37:23;;;;;;;2.50;2.30;;;22.40;62.90;;;;;;6048034;28;89293;-65
2022/03/01 14:40:26;;;;;;;2.55;2.30;;;22.40;62.90;;;;;;6064298;28;89533;-65
2022/03/01 14:43:28;;;;;;;2.30;2.10;;;22.40;62.80;;;;;;6061382;28;89157;-65
2022/03/01 14:46:30;;;;;;;2.47;2.28;;;22.40;62.80;;;;;;6050509;28;88353;-65
2022/03/01 14:49:32;;;;;;;2.47;2.28;;;22.40;62.70;;;;;;6047933;28;89142;-65
2022/03/01 14:52:36;;;;;;;2.53;2.33;;;22.40;62.80;;;;;;6049868;28;89190;-65
2022/03/01 14:55:38;;;;;;;2.40;2.20;;;22.40;62.80;;;;;;6039342;28;90117;-65
2022/03/01 14:58:40;;;;;;;2.28;2.08;;;22.40;62.80;;;;;;6049151;28;87933;-65
2022/03/01 15:01:42;;;;;;;2.40;2.20;;;22.40;62.80;;;;;;6061685;28;88999;-65
2022/03/01 15:04:48;;;;;;;2.47;2.28;;;22.40;62.80;;;;;;6062106;28;89545;-64
2022/03/01 15:07:51;;;;;;;2.50;2.25;;;22.30;62.80;;;;;;6057359;28;89122;-65
2022/03/01 15:10:53;;;;;;;2.38;2.17;;;22.30;62.80;;;;;;6049485;28;88926;-64
2022/03/01 15:13:57;;;;;;;2.63;2.40;;;22.30;62.90;;;;;;6052411;28;88008;-64
2022/03/01 15:17:00;;;;;;;3.17;2.20;;;22.30;63.00;;;;;;6055424;28;87320;-64
2022/03/01 15:20:02;;;;;;;2.60;2.40;;;22.30;63.00;;;;;;6057514;28;89089;-64
2022/03/01 15:26:25;;;;;;;3.10;2.28;;;22.40;63.00;;;;;;6051449;28;88327;-64
2022/03/01 15:29:27;;;;;;;2.58;2.38;;;22.40;63.00;;;;;;6051463;28;89071;-64
2022/03/01 15:32:29;;;;;;;2.55;2.28;;;22.40;63.10;;;;;;6053024;28;89137;-65
2022/03/01 15:35:31;;;;;;;2.70;2.20;;;22.40;63.20;;;;;;6052335;28;89102;-64
2022/03/01 15:38:36;;;;;;;2.60;2.40;;;22.40;63.20;;;;;;6051682;28;89062;-64
2022/03/01 15:41:38;;;;;;;2.50;2.30;;;22.40;63.30;;;;;;6041119;28;88098;-64
2022/03/01 15:44:40;;;;;;;2.50;2.30;;;22.40;63.50;;;;;;6059738;28;89096;-64
2022/03/01 15:47:44;;;;;;;2.40;2.20;;;22.40;63.70;;;;;;6047498;28;88638;-65
2022/03/01 15:50:46;;;;;;;2.67;2.40;;;22.40;63.80;;;;;;6055917;28;88964;-64
2022/03/01 15:53:50;;;;;;;2.30;2.10;;;22.40;64.00;;;;;;6053888;28;88934;-64
2022/03/01 15:56:52;;;;;;;2.67;2.30;;;22.40;64.20;;;;;;6057880;28;90295;-64